Flight Track Log - Related Links

Times and Time Zones

All times are in EDT time to prevent confusion due to time zone crossing. See the UPS2752 flight status page for this flight to view local times or setup timezone preferences in your user account.

Time Position Orientation Groundspeed Altitude Reporting Facility
EDT Latitude Longitude Course Direction KTS MPH feet Rate Location/Type
Thu 05:14:23 PM 38.1700 -85.7430 165° South 145 167  Level FlightAware ADS-B
Thu 05:14:48 PM 38.1900 -85.7490 347° North 161 185 1,700 3,659 Climbing FlightAware ADS-B
Thu 05:15:04 PM 38.2020 -85.7540 342° North 160 184 2,500 3,000 Climbing FlightAware ADS-B
Thu 05:15:16 PM 38.2100 -85.7590 334° Northwest 163 188 3,100 2,500 Climbing FlightAware ADS-B
Thu 05:15:40 PM 38.2270 -85.7710 331° Northwest 194 223 4,000 2,045 Climbing FlightAware ADS-B
Thu 05:16:00 PM 38.2430 -85.7840 327° Northwest 228 262 4,600 2,400 Climbing FlightAware ADS-B
Thu 05:16:20 PM 38.2630 -85.8000 328° Northwest 246 283 5,600 3,429 Climbing FlightAware ADS-B
Thu 05:16:28 PM 38.2700 -85.8090 315° West 245 282 6,200 3,600 Climbing FlightAware ADS-B
Thu 05:16:40 PM 38.2760 -85.8230 299° West 252 290 6,800 3,300 Climbing FlightAware ADS-B
Thu 05:16:48 PM 38.2780 -85.8360 281° West 250 288 7,300 4,333 Climbing FlightAware ADS-B
Thu 05:17:16 PM 38.2710 -85.8740 257° West 252 290 9,400 4,000 Climbing FlightAware ADS-B
Thu 05:17:24 PM 38.2650 -85.8820 226° Southwest 259 298 9,700 1,800 Climbing FlightAware ADS-B
Thu 05:17:56 PM 38.2330 -85.9160 220° Southwest 288 331 10,600 1,742 Climbing FlightAware ADS-B
Thu 05:18:26 PM 38.2000 -85.9490 218° Southwest 320 368 11,500 1,579 Climbing FlightAware ADS-B
Thu 05:18:34 PM 38.1930 -85.9600 231° Southwest 324 373 11,600 1,500 Climbing FlightAware ADS-B
Thu 05:18:42 PM 38.1870 -85.9750 243° Southwest 328 377 11,900 1,800 Climbing FlightAware ADS-B
Thu 05:18:54 PM 38.1830 -85.9980 258° West 337 388 12,200 2,625 Climbing FlightAware ADS-B
Thu 05:19:30 PM 38.1750 -86.0710 262° West 351 404 14,000 3,250 Climbing FlightAware ADS-B
Thu 05:20:06 PM 38.1650 -86.1430 260° West 355 409 16,100 3,091 Climbing FlightAware ADS-B
Thu 05:20:36 PM 38.1560 -86.2080 260° West 368 423 17,400 2,636 Climbing FlightAware ADS-B
Thu 05:21:12 PM 38.1460 -86.2790 260° West 375 432 19,000 3,000 Climbing FlightAware ADS-B
Thu 05:21:50 PM 38.1340 -86.3660 260° West 375 432 21,100 3,000 Climbing FlightAware ADS-B
Thu 05:22:26 PM 38.1230 -86.4440 260° West 380 437 22,700 2,559 Climbing FlightAware ADS-B
Thu 05:22:58 PM 38.1130 -86.5150 260° West 385 443 24,000 2,206 Climbing FlightAware ADS-B
Thu 05:23:34 PM 38.1020 -86.5930 260° West 392 451 25,200 2,029 Climbing FlightAware ADS-B
Thu 05:24:06 PM 38.0910 -86.6700 260° West 399 459 26,300 1,971 Climbing FlightAware ADS-B
Thu 05:24:44 PM 38.0780 -86.7560 259° West 404 465 27,500 2,595 Climbing FlightAware ADS-B
Thu 05:25:20 PM 38.0660 -86.8400 260° West 390 449 29,500 2,083 Climbing FlightAware ADS-B
Thu 05:25:56 PM 38.0540 -86.9200 259° West 381 438 30,000 357 Climbing FlightAware ADS-B
Thu 05:26:44 PM 38.0390 -87.0260 260° West 380 437 30,000  Level FlightAware ADS-B
Thu 05:27:16 PM 38.0280 -87.0960 259° West 384 442 30,000 529 Level FlightAware ADS-B
Thu 05:27:52 PM 38.0170 -87.1730 260° West 382 440 30,600 833 Climbing FlightAware ADS-B
Thu 05:28:28 PM 38.0050 -87.2550 260° West 375 432 31,000 333 Climbing FlightAware ADS-B
Thu 05:29:04 PM 37.9940 -87.3300 259° West 374 430 31,000  Level FlightAware ADS-B
Thu 05:29:40 PM 37.9820 -87.4080 259° West 376 433 31,000 94 Level FlightAware ADS-B
Thu 05:30:08 PM 37.9730 -87.4680 259° West 376 433 31,100 1,059 Climbing FlightAware ADS-B
Thu 05:30:48 PM 37.9600 -87.5550 259° West 374 430 32,200 1,658 Climbing FlightAware ADS-B
Thu 05:31:24 PM 37.9480 -87.6320 259° West 363 418 33,200 1,500 Climbing FlightAware ADS-B
Thu 05:32:00 PM 37.9370 -87.7060 259° West 361 415 34,000 1,071 Climbing FlightAware ADS-B
Thu 05:32:20 PM 37.9270 -87.7460 252° West 355 409 34,200 1,125 Climbing FlightAware ADS-B
Thu 05:32:48 PM 37.9040 -87.7960 240° Southwest 357 411 34,900 1,600 Climbing FlightAware ADS-B
Thu 05:33:20 PM 37.8700 -87.8460 229° Southwest 353 406 35,800 971 Climbing FlightAware ADS-B
Thu 05:33:56 PM 37.8320 -87.9020 229° Southwest 347 399 36,000 167 Climbing FlightAware ADS-B
Thu 05:34:32 PM 37.7930 -87.9580 229° Southwest 348 400 36,000  Level FlightAware ADS-B
Thu 05:35:05 PM 37.7590 -88.0080 229° Southwest 355 409 36,000  Level FlightAware ADS-B
Thu 05:35:40 PM 37.7210 -88.0620 228° Southwest 357 411 36,000  Level FlightAware ADS-B
Thu 05:36:16 PM 37.6820 -88.1200 230° Southwest 357 411 36,000  Level FlightAware ADS-B
Thu 05:36:52 PM 37.6420 -88.1760 228° Southwest 354 407 36,000 83 Level FlightAware ADS-B
Thu 05:37:28 PM 37.6030 -88.2320 229° Southwest 350 403 36,100 529 Climbing FlightAware ADS-B
Thu 05:38:00 PM 37.5730 -88.2840 234° Southwest 352 405 36,600 1,147 Climbing FlightAware ADS-B
Thu 05:38:36 PM 37.5390 -88.3440 234° Southwest 349 402 37,400 1,068 Climbing FlightAware ADS-B
Thu 05:39:13 PM 37.5050 -88.4030 234° Southwest 351 404 37,900 500 Climbing FlightAware ADS-B
Thu 05:39:48 PM 37.4710 -88.4620 234° Southwest 350 403 38,000 90 Climbing FlightAware ADS-B
Thu 05:40:20 PM 37.4400 -88.5160 234° Southwest 347 399 38,000  Level FlightAware ADS-B
Thu 05:40:58 PM 37.4040 -88.5770 233° Southwest 348 400 38,000  Level FlightAware ADS-B
Thu 05:41:34 PM 37.3700 -88.6360 234° Southwest 350 403 38,000  Level FlightAware ADS-B
Thu 05:42:06 PM 37.3390 -88.6890 234° Southwest 350 403 38,000  Level FlightAware ADS-B
Thu 05:42:40 PM 37.3070 -88.7450 234° Southwest 350 403 38,000  Level FlightAware ADS-B
Thu 05:43:18 PM 37.2700 -88.8070 233° Southwest 350 403 38,000  Level FlightAware ADS-B
Thu 05:43:54 PM 37.2360 -88.8670 235° Southwest 351 404 38,000  Level FlightAware ADS-B
Thu 05:44:26 PM 37.2060 -88.9180 234° Southwest 352 405 38,000  Level FlightAware ADS-B
Thu 05:45:02 PM 37.1710 -88.9780 234° Southwest 353 406 38,000  Level FlightAware ADS-B
Thu 05:45:38 PM 37.1360 -89.0370 233° Southwest 353 406 38,000  Level FlightAware ADS-B
Thu 05:46:10 PM 37.1050 -89.0900 234° Southwest 353 406 38,000  Level FlightAware ADS-B
Thu 05:46:46 PM 37.0710 -89.1480 234° Southwest 354 407 38,000  Level FlightAware ADS-B
Thu 05:47:22 PM 37.0350 -89.2090 234° Southwest 353 406 38,000  Level FlightAware ADS-B
Thu 05:47:58 PM 37.0010 -89.2660 233° Southwest 353 406 38,000  Level FlightAware ADS-B
Thu 05:48:30 PM 36.9700 -89.3190 234° Southwest 354 407 38,000  Level FlightAware ADS-B
Thu 05:49:06 PM 36.9350 -89.3770 233° Southwest 354 407 38,000  Level FlightAware ADS-B
Thu 05:49:42 PM 36.8990 -89.4380 234° Southwest 353 406 38,000  Level FlightAware ADS-B
Thu 05:50:18 PM 36.8640 -89.4970 233° Southwest 353 406 38,000  Level FlightAware ADS-B
Thu 05:50:54 PM 36.8300 -89.5530 233° Southwest 353 406 38,000  Level FlightAware ADS-B
Thu 05:51:26 PM 36.7990 -89.6070 234° Southwest 353 406 38,000  Level FlightAware ADS-B
Thu 05:52:03 PM 36.7620 -89.6670 232° Southwest 352 405 38,000  Level FlightAware ADS-B
Thu 05:52:38 PM 36.7280 -89.7240 233° Southwest 351 404 38,000  Level FlightAware ADS-B
Thu 05:53:13 PM 36.6940 -89.7810 233° Southwest 351 404 38,000  Level FlightAware ADS-B
Thu 05:53:49 PM 36.6590 -89.8390 233° Southwest 351 404 38,000  Level FlightAware ADS-B
Thu 05:54:24 PM 36.6250 -89.8960 233° Southwest 351 404 38,000  Level FlightAware ADS-B
Thu 05:54:59 PM 36.5910 -89.9520 233° Southwest 352 405 38,000  Level FlightAware ADS-B
Thu 05:55:34 PM 36.5570 -90.0080 233° Southwest 352 405 38,000  Level FlightAware ADS-B
Thu 05:56:08 PM 36.5230 -90.0640 233° Southwest 352 405 38,000  Level FlightAware ADS-B
Thu 05:56:43 PM 36.4900 -90.1190 233° Southwest 352 405 38,000  Level FlightAware ADS-B
Thu 05:57:20 PM 36.4540 -90.1780 233° Southwest 353 406 38,000  Level FlightAware ADS-B
Thu 05:58:00 PM 36.4140 -90.2440 233° Southwest 353 406 38,000  Level FlightAware ADS-B
Thu 05:58:36 PM 36.3790 -90.3010 233° Southwest 353 406 38,000  Level FlightAware ADS-B
Thu 05:59:08 PM 36.3470 -90.3540 233° Southwest 352 405 38,000  Level FlightAware ADS-B
Thu 05:59:59 PM 36.3020 -90.4270 233° Southwest 352 405 38,000  Level FlightAware ADS-B
Thu 06:00:33 PM 36.2630 -90.4910 233° Southwest 353 406 38,000  Level FlightAware ADS-B
Thu 06:01:10 PM 36.2270 -90.5500 233° Southwest 354 407 38,000  Level FlightAware ADS-B
Thu 06:01:42 PM 36.1950 -90.6020 233° Southwest 353 406 38,000  Level FlightAware ADS-B
Thu 06:02:22 PM 36.1560 -90.6650 233° Southwest 353 406 38,000  Level FlightAware ADS-B
Thu 06:02:54 PM 36.1230 -90.7180 232° Southwest 354 407 38,000  Level FlightAware ADS-B
Thu 06:03:32 PM 36.0850 -90.7790 232° Southwest 356 410 38,000  Level FlightAware ADS-B
Thu 06:04:04 PM 36.0530 -90.8320 233° Southwest 356 410 38,000  Level FlightAware ADS-B
Thu 06:04:40 PM 36.0170 -90.8890 232° Southwest 356 410 38,000  Level FlightAware ADS-B
Thu 06:05:14 PM 35.9830 -90.9440 233° Southwest 357 411 38,000  Level FlightAware ADS-B
Thu 06:05:50 PM 35.9520 -90.9940 233° Southwest 356 410 38,000  Level FlightAware ADS-B
Thu 06:06:27 PM 35.9200 -91.0440 232° Southwest 356 410 38,000  Level FlightAware ADS-B
Thu 06:07:04 PM 35.8880 -91.0940 232° Southwest 356 410 38,000  Level FlightAware ADS-B
Thu 06:07:40 PM 35.8370 -91.1780 233° Southwest 357 411 38,000  Level FlightAware ADS-B
Thu 06:08:14 PM 35.8030 -91.2330 233° Southwest 357 411 38,000  Level FlightAware ADS-B
Thu 06:08:52 PM 35.7640 -91.2940 232° Southwest 358 412 38,000  Level FlightAware ADS-B
Thu 06:09:28 PM 35.7280 -91.3530 233° Southwest 358 412 38,000  Level FlightAware ADS-B
Thu 06:10:04 PM 35.6910 -91.4110 232° Southwest 358 412 38,000  Level FlightAware ADS-B
Thu 06:10:33 PM 35.6630 -91.4550 232° Southwest 358 412 38,000  Level FlightAware ADS-B
Thu 06:11:27 PM 35.6100 -91.5400 233° Southwest 359 413 38,000  Level FlightAware ADS-B
Thu 06:11:59 PM 35.5760 -91.5930 232° Southwest 359 413 38,000  Level FlightAware ADS-B
Thu 06:12:36 PM 35.5360 -91.6550 232° Southwest 360 414 38,000  Level FlightAware ADS-B
Thu 06:13:12 PM 35.4990 -91.7140 232° Southwest 360 414 38,000  Level FlightAware ADS-B
Thu 06:13:47 PM 35.4640 -91.7690 232° Southwest 360 414 38,000 94 Level FlightAware ADS-B
Thu 06:14:16 PM 35.4360 -91.8140 233° Southwest 359 413 38,100 90 Climbing FlightAware ADS-B
Thu 06:14:54 PM 35.3950 -91.8780 232° Southwest 361 415 38,100  Level FlightAware ADS-B
Thu 06:15:31 PM 35.3570 -91.9370 232° Southwest 361 415 38,100  Level FlightAware ADS-B
Thu 06:16:04 PM 35.3230 -91.9900 232° Southwest 361 415 38,100  Level FlightAware ADS-B
Thu 06:16:40 PM 35.2860 -92.0480 232° Southwest 359 413 38,100 -82 Level FlightAware ADS-B
Thu 06:17:17 PM 35.2480 -92.1070 232° Southwest 358 412 38,000 -88 Descending FlightAware ADS-B
Thu 06:17:48 PM 35.2170 -92.1550 232° Southwest 358 412 38,000  Level FlightAware ADS-B
Thu 06:18:27 PM 35.1770 -92.2170 232° Southwest 356 410 38,000  Level FlightAware ADS-B
Thu 06:19:03 PM 35.1400 -92.2740 232° Southwest 355 409 38,000  Level FlightAware ADS-B
Thu 06:19:36 PM 35.1070 -92.3250 232° Southwest 354 407 38,000  Level FlightAware ADS-B
Thu 06:20:10 PM 35.0710 -92.3800 231° Southwest 354 407 38,000  Level FlightAware ADS-B
Thu 06:20:48 PM 35.0340 -92.4380 232° Southwest 352 405 38,000  Level FlightAware ADS-B
Thu 06:21:20 PM 35.0010 -92.4890 232° Southwest 353 406 38,000  Level FlightAware ADS-B
Thu 06:21:56 PM 34.9670 -92.5420 232° Southwest 352 405 38,000  Level FlightAware ADS-B
Thu 06:22:30 PM 34.9310 -92.5960 231° Southwest 353 406 38,000  Level FlightAware ADS-B
Thu 06:23:02 PM 34.8990 -92.6450 231° Southwest 355 409 38,000  Level FlightAware ADS-B
Thu 06:23:41 PM 34.8580 -92.7080 232° Southwest 357 411 38,000 80 Level FlightAware ADS-B
Thu 06:24:17 PM 34.8200 -92.7660 231° Southwest 359 413 38,100 85 Climbing FlightAware ADS-B
Thu 06:24:52 PM 34.7840 -92.8220 232° Southwest 361 415 38,100  Level FlightAware ADS-B
Thu 06:25:23 PM 34.7520 -92.8690 230° Southwest 364 419 38,100  Level FlightAware ADS-B
Thu 06:26:00 PM 34.7130 -92.9290 232° Southwest 365 420 38,100  Level FlightAware ADS-B
Thu 06:26:36 PM 34.6760 -92.9850 231° Southwest 366 421 38,100  Level FlightAware ADS-B
Thu 06:27:09 PM 34.6400 -93.0400 232° Southwest 367 422 38,100 -86 Level FlightAware ADS-B
Thu 06:27:46 PM 34.6020 -93.0970 231° Southwest 364 419 38,000 -80 Descending FlightAware ADS-B
Thu 06:28:24 PM 34.5680 -93.1490 232° Southwest 364 419 38,000  Level FlightAware ADS-B
Thu 06:29:03 PM 34.5190 -93.2220 231° Southwest 362 417 38,000  Level FlightAware ADS-B
Thu 06:29:34 PM 34.4880 -93.2690 231° Southwest 362 417 38,000  Level FlightAware ADS-B
Thu 06:30:16 PM 34.4440 -93.3350 231° Southwest 360 414 38,000  Level FlightAware ADS-B
Thu 06:30:47 PM 34.4110 -93.3850 231° Southwest 359 413 38,000  Level FlightAware ADS-B
Thu 06:31:24 PM 34.3720 -93.4430 231° Southwest 361 415 38,000  Level FlightAware ADS-B
Thu 06:31:59 PM 34.3370 -93.4960 231° Southwest 362 417 38,000  Level FlightAware ADS-B
Thu 06:32:33 PM 34.3090 -93.5590 242° Southwest 360 414 38,000 76 Level FlightAware ADS-B
Thu 06:33:18 PM 34.2880 -93.6370 252° West 361 415 38,100 72 Climbing FlightAware ADS-B
Thu 06:33:56 PM 34.2670 -93.7110 251° West 449 517 38,100  Level FlightAware ADS-B
Thu 06:34:32 PM 34.2490 -93.7750 251° West 364 419 38,100  Level FlightAware ADS-B
Thu 06:35:09 PM 34.2320 -93.8350 251° West 364 419 38,100  Level FlightAware ADS-B
Thu 06:35:40 PM 34.2110 -93.9120 252° West 365 420 38,100 -74 Level FlightAware ADS-B
Thu 06:36:30 PM 34.1850 -94.0060 252° West 365 420 38,000 -69 Descending FlightAware ADS-B
Thu 06:37:07 PM 34.1690 -94.0670 252° West 365 420 38,000  Level FlightAware ADS-B
Thu 06:37:43 PM 34.1530 -94.1260 252° West 365 420 38,000  Level FlightAware ADS-B
Thu 06:38:19 PM 34.1370 -94.1860 252° West 365 420 38,000  Level FlightAware ADS-B
Thu 06:38:50 PM 34.1100 -94.2720 249° West 360 414 38,000  Level FlightAware ADS-B
Thu 06:39:28 PM 34.0930 -94.3340 252° West 360 414 38,000 -675 Level FlightAware ADS-B
Thu 06:40:10 PM 34.0660 -94.4270 251° West 363 418 37,100 -1,098 Descending FlightAware ADS-B
Thu 06:40:50 PM 34.0450 -94.5030 252° West 366 421 36,500 -960 Descending FlightAware ADS-B
Thu 06:41:25 PM 34.0250 -94.5720 251° West 366 421 35,900 -706 Descending FlightAware ADS-B
Thu 06:42:15 PM 34.0000 -94.6590 251° West 368 423 35,500 -918 Descending FlightAware ADS-B
Thu 06:42:50 PM 33.9810 -94.7290 252° West 371 427 34,600 -750 Descending FlightAware ADS-B
Thu 06:43:27 PM 33.9630 -94.7900 250° West 371 427 34,600  Level FlightAware ADS-B
Thu 06:44:04 PM 33.9450 -94.8520 251° West 371 427 34,600 -1,520 Level FlightAware ADS-B
Thu 06:44:42 PM 33.9140 -94.9600 251° West 377 434 32,700 -2,143 Descending FlightAware ADS-B
Thu 06:45:14 PM 33.8950 -95.0250 251° West 381 438 32,100 -1,200 Descending FlightAware ADS-B
Thu 06:45:52 PM 33.8730 -95.1010 251° West 381 438 31,300 -1,333 Descending FlightAware ADS-B
Thu 06:46:26 PM 33.8510 -95.1700 249° West 390 449 30,500 -1,500 Descending FlightAware ADS-B
Thu 06:47:04 PM 33.8240 -95.2450 247° West 388 447 29,500 -1,543 Descending FlightAware ADS-B
Thu 06:47:36 PM 33.8010 -95.3070 246° West 385 443 28,700 -1,477 Descending FlightAware ADS-B
Thu 06:48:09 PM 33.7790 -95.3690 247° West 384 442 27,900 -1,457 Descending FlightAware ADS-B
Thu 06:48:46 PM 33.7520 -95.4430 246° West 385 443 27,000 -1,012 Descending FlightAware ADS-B
Thu 06:49:32 PM 33.7220 -95.5250 246° West 385 443 26,500 -1,457 Descending FlightAware ADS-B
Thu 06:49:56 PM 33.7030 -95.5780 247° West 382 440 25,300 -2,091 Descending FlightAware ADS-B
Thu 06:50:38 PM 33.6720 -95.6620 246° West 379 436 24,200 -1,500 Descending FlightAware ADS-B
Thu 06:51:12 PM 33.6480 -95.7270 246° West 381 438 23,400 -1,500 Descending FlightAware ADS-B
Thu 06:51:50 PM 33.6210 -95.8000 246° West 377 434 22,400 -1,541 Descending FlightAware ADS-B
Thu 06:52:26 PM 33.5960 -95.8710 247° West 374 430 21,500 -2,029 Descending FlightAware ADS-B
Thu 06:52:58 PM 33.5740 -95.9300 246° West 373 429 20,100 -3,176 Descending FlightAware ADS-B
Thu 06:53:34 PM 33.5490 -95.9970 246° West 363 418 17,900 -3,771 Descending FlightAware ADS-B
Thu 06:54:08 PM 33.5260 -96.0600 246° West 357 411 15,700 -3,391 Descending FlightAware ADS-B
Thu 06:54:43 PM 33.5020 -96.1220 245° Southwest 357 411 14,000 -2,500 Descending FlightAware ADS-B
Thu 06:55:20 PM 33.4780 -96.1890 247° West 349 402 12,700 -2,055 Descending FlightAware ADS-B
Thu 06:55:56 PM 33.4540 -96.2520 245° Southwest 342 394 11,500 -1,612 Descending FlightAware ADS-B
Thu 06:56:27 PM 33.4350 -96.3030 246° West 321 369 10,900 -529 Descending FlightAware ADS-B
Thu 06:57:04 PM 33.4140 -96.3590 246° West 278 320 10,900 -82 Level FlightAware ADS-B
Thu 06:57:40 PM 33.3920 -96.4090 242° Southwest 284 327 10,800 -938 Descending FlightAware ADS-B
Thu 06:58:08 PM 33.3650 -96.4400 224° Southwest 291 335 9,900 -1,750 Descending FlightAware ADS-B
Thu 06:58:28 PM 33.3450 -96.4620 223° Southwest 287 330 9,400 -1,350 Descending FlightAware ADS-B
Thu 06:58:48 PM 33.3270 -96.4840 226° Southwest 282 325 9,000 -1,350 Descending FlightAware ADS-B
Thu 06:59:08 PM 33.3100 -96.5060 227° Southwest 280 322 8,500 -1,650 Descending FlightAware ADS-B
Thu 06:59:28 PM 33.2910 -96.5290 225° Southwest 280 322 7,900 -1,636 Descending FlightAware ADS-B
Thu 06:59:52 PM 33.2690 -96.5550 225° Southwest 277 319 7,300 -1,421 Descending FlightAware ADS-B
Thu 07:00:06 PM 33.2600 -96.5730 239° Southwest 271 312 7,000 -667 Descending FlightAware ADS-B
Thu 07:00:10 PM 33.2592 -96.5734 203° Southwest 274 315 7,100 -960 Climbing FlightAware ADS-B
Thu 07:00:31 PM 33.2481 -96.5999 243° Southwest 267 307 6,600 -1,583 Descending FlightAware ADS-B
Thu 07:01:22 PM 33.2170 -96.6740 243° Southwest 266 306 5,200 -1,574 Descending FlightAware ADS-B
Thu 07:01:32 PM 33.2170 -96.6736 90° East 266 306 5,000 -581 Descending FlightAware ADS-B
Thu 07:01:53 PM 33.2029 -96.7079 244° Southwest 262 302 4,900 -146 Descending FlightAware ADS-B
Thu 07:02:13 PM 33.1933 -96.7318 244° Southwest 258 297 4,900  Level FlightAware ADS-B
Thu 07:02:30 PM 33.1843 -96.7539 244° Southwest 258 297 4,900 162 Level FlightAware ADS-B
Thu 07:02:50 PM 33.1718 -96.7790 239° Southwest 260 299 5,000 146 Climbing FlightAware ADS-B
Thu 07:03:11 PM 33.1587 -96.8031 237° Southwest 259 298 5,000  Level FlightAware ADS-B
Thu 07:03:32 PM 33.1445 -96.8289 237° Southwest 260 299 5,000 -120 Level FlightAware ADS-B
Thu 07:04:01 PM 33.1230 -96.8663 236° Southwest 260 299 4,900 -122 Descending FlightAware ADS-B
Thu 07:04:21 PM 33.1115 -96.8858 235° Southwest 249 287 4,900 -590 Level FlightAware ADS-B
Thu 07:05:02 PM 33.0843 -96.9319 235° Southwest 227 261 4,300 -871 Descending FlightAware ADS-B
Thu 07:05:23 PM 33.0732 -96.9512 236° Southwest 225 259 4,000 -720 Descending FlightAware ADS-B
Thu 07:05:52 PM 33.0515 -96.9723 219° Southwest 194 223 3,700 -980 Descending FlightAware ADS-B
Thu 07:06:12 PM 33.0362 -96.9815 207° Southwest 187 215 3,200 -1,171 Descending FlightAware ADS-B
Thu 07:06:33 PM 33.0206 -96.9920 209° Southwest 188 216 2,900 -732 Descending FlightAware ADS-B
Thu 07:06:53 PM 33.0040 -97.0028 209° Southwest 186 214 2,700 -811 Descending FlightAware ADS-B
Thu 07:07:10 PM 32.9927 -97.0075 199° South 184 212 2,400 -1,135 Descending FlightAware ADS-B
Thu 07:07:30 PM 32.9746 -97.0093 185° South 160 184 2,000 -1,091 Descending FlightAware ADS-B
Thu 07:07:43 PM 32.9716 -97.0093 180° South 153 176 1,800 -868 Descending FlightAware ADS-B
Thu 07:08:46 PM 32.9200 -97.0090 180° South 148 170 900 -617 Descending FlightAware ADS-B
Thu 07:09:30 PM 32.8940 -97.0100 182° South 146 168 700 -273 Descending FlightAware ADS-B

Login

Don't have an account? Register now (free) for customized features, flight alerts, and more!